Weather

Partly Cloudy
Friday 10/19 0%
Partly Cloudy
Partly cloudy. Lows overnight in the mid 40s.
Clear
Saturday 10/20 0%
Clear
Sunny skies. High 69F. Winds ESE at 10 to 20 mph.
Partly Cloudy
Sunday 10/21 0%
Partly Cloudy
Sunshine and clouds mixed. High near 65F. Winds SSE at 5 to 10 mph.
Partly Cloudy
Monday 10/22 20%
Partly Cloudy
Sunshine and clouds mixed. High 68F. Winds SSE at 5 to 10 mph.
Thunderstorm
Tuesday 10/23 80%
Thunderstorm
Rain showers in the morning with numerous thunderstorms developing in the afternoon. High near 60F. Winds ESE at 5 to 10 mph. Chance of rain 80%.

 

 

For a detailed forecast click the banner below.

ballooncastlogo

 

 

Available data for KABQ from the past 2 hours
ALBUQUERQUE, NM
Metar
KABQ 200152Z 06006KT 10SM SCT080 16/M01 A3031 RMK AO2 SLP225 T01561011

01:52 UTC

Wind: 60° 6kt

Visibility: 10 SM

Sky: SCT 8000 ft

Temp: 16 deg C / 60.8 deg F

Dewpoint: -1 deg C / 30.2 deg F

Pressure: 30.31 inHg

TAF
KABQ 192329Z 2000/2024 05006KT P6SM FEW080 FM200200 09014G23KT P6SM FEW060 FM200900 08013KT P6SM SCT050 FM201600 10014G22KT P6SM SCT050